Sun Universe — 3FOQ4 — position and weather

sailwx.info

Track history (hours):
 
Tides and Currents Weather Stations Pressure Air Temp Water Temp Dewpoint Dewpoint Depression Visibility Wind Speed Wind Dir Waves Ship Positions

Sun Universe

Last reported at 2014-Oct-29 15:12 UTC. Time now 2014-Oct-30 15:14 UTC.
Position N 25°57' E 119°55'.

Length 116 m; draft 5.2 m.

Type: Cargo ship. MMSI: 371647000.

Date/timePositionNaut miles runAvg speedWind from/ knotsBaromVisibWave heightAir tempDewpointWater temp
2014-Oct-29 15:12N 25°57' E 119°55'0 0.0
2014-Oct-28 14:06N 25°57' E 119°55'0 0.0
2014-Oct-28 13:24N 25°57' E 119°55'0 0.0
2014-Oct-28 11:30N 25°57' E 119°55'0 0.0
2014-Oct-27 23:12N 25°57' E 119°55'0 0.0
2014-Oct-27 22:30N 25°57' E 119°55'0 0.0
2014-Oct-26 00:06N 25°57' E 119°55'0 0.0
2014-Oct-25 23:30N 25°57' E 119°55'23 7.6
2014-Oct-25 20:27N 25°34' E 119°58'9 3.0
2014-Oct-25 17:20N 25°25' E 119°60'2212.2
2014-Oct-25 15:33N 25°09' E 119°44'1711.7
2014-Oct-25 14:05N 24°57' E 119°30'712.7
2014-Oct-25 13:32N 24°52' E 119°25'1313.4
2014-Oct-25 12:33N 24°43' E 119°14'1613.7
2014-Oct-25 11:25N 24°33' E 119°01'1314.1
2014-Oct-25 10:29N 24°24' E 118°50'1413.6
2014-Oct-25 09:28N 24°15' E 118°39'1112.1
2014-Oct-25 08:33N 24°08' E 118°30'1211.7
2014-Oct-25 07:33N 24°00' E 118°20'1211.6
2014-Oct-25 06:33N 23°52' E 118°11'1211.7
2014-Oct-25 05:33N 23°44' E 118°01'1312.3
2014-Oct-25 04:31N 23°36' E 117°51'1713.6
2014-Oct-25 03:15N 23°25' E 117°37'5013.4
2014-Oct-24 23:30N 22°57' E 116°51'1212.6
2014-Oct-24 22:33N 22°51' E 116°40'16112.4
2014-Oct-24 09:33N 22°01' E 113°55'1111.0
2014-Oct-24 08:33N 22°09' E 113°48'1414.0
2014-Oct-24 07:32N 22°23' E 113°46'1513.6
2014-Oct-24 06:25N 22°38' E 113°41'2 0.1
2014-Oct-23 04:24N 22°36' E 113°43'1112.5
2014-Oct-23 03:33N 22°26' E 113°45'1312.6
2014-Oct-23 02:33N 22°13' E 113°48'9 8.4
2014-Oct-23 01:32N 22°05' E 113°51'3 3.3
2014-Oct-23 00:33N 22°04' E 113°54'0 0.0
2014-Oct-22 16:15N 22°04' E 113°54'0 0.1
2014-Oct-22 15:27N 22°04' E 113°54'0 0.0
2014-Oct-22 14:33N 22°04' E 113°54'0 0.0
2014-Oct-22 13:33N 22°04' E 113°54'0 0.0
2014-Oct-22 12:21N 22°04' E 113°54'0 0.0
2014-Oct-22 11:33N 22°04' E 113°54'0 0.1
2014-Oct-22 10:33N 22°04' E 113°54'0 0.0
2014-Oct-22 09:33N 22°04' E 113°54'0 0.1
2014-Oct-22 08:21N 22°04' E 113°54'14612.2
2014-Oct-21 20:26N 22°44' E 116°26'1213.4
2014-Oct-21 19:33N 22°49' E 116°37'1413.6
2014-Oct-21 18:33N 22°56' E 116°50'1413.5
2014-Oct-21 17:34N 23°02' E 117°03'1414.0
2014-Oct-21 16:34N 23°09' E 117°16'1312.9
2014-Oct-21 15:33N 23°17' E 117°28'1513.4
2014-Oct-21 14:26N 23°27' E 117°40'1212.4
2014-Oct-21 13:30N 23°35' E 117°49'1212.3
2014-Oct-21 12:33N 23°43' E 117°58'1211.8
2014-Oct-21 11:32N 23°51' E 118°08'1212.0
2014-Oct-21 10:32N 23°58' E 118°18'1212.0
2014-Oct-21 09:31N 24°07' E 118°28'1212.7
2014-Oct-21 08:32N 24°15' E 118°38'1212.4
2014-Oct-21 07:33N 24°23' E 118°48'1212.4
2014-Oct-21 06:33N 24°31' E 118°58'1212.4
2014-Oct-21 05:33N 24°39' E 119°08'1312.6
2014-Oct-21 04:33N 24°48' E 119°19'30213.1
2014-Oct-20 05:33N 28°25' E 123°13'1413.1
2014-Oct-20 04:27N 28°35' E 123°24'1212.8
2014-Oct-20 03:31N 28°44' E 123°34'  
Track history (hours):
 
Tides and Currents Weather Stations Pressure Air Temp Water Temp Dewpoint Dewpoint Depression Visibility Wind Speed Wind Dir Waves Ship Positions

Sun Universe

Last reported at 2014-Oct-29 15:12 UTC. Time now 2014-Oct-30 15:14 UTC.
Position N 25°57' E 119°55'.

Length 116 m; draft 5.2 m.

Type: Cargo ship. MMSI: 371647000.

Date/timePositionNaut miles runAvg speedWind from/ knotsBaromVisibWave heightAir tempDewpointWater temp
2014-Oct-29 15:12N 25°57' E 119°55'0 0.0
2014-Oct-28 14:06N 25°57' E 119°55'0 0.0
2014-Oct-28 13:24N 25°57' E 119°55'0 0.0
2014-Oct-28 11:30N 25°57' E 119°55'0 0.0
2014-Oct-27 23:12N 25°57' E 119°55'0 0.0
2014-Oct-27 22:30N 25°57' E 119°55'0 0.0
2014-Oct-26 00:06N 25°57' E 119°55'0 0.0
2014-Oct-25 23:30N 25°57' E 119°55'23 7.6
2014-Oct-25 20:27N 25°34' E 119°58'9 3.0
2014-Oct-25 17:20N 25°25' E 119°60'2212.2
2014-Oct-25 15:33N 25°09' E 119°44'1711.7
2014-Oct-25 14:05N 24°57' E 119°30'712.7
2014-Oct-25 13:32N 24°52' E 119°25'1313.4
2014-Oct-25 12:33N 24°43' E 119°14'1613.7
2014-Oct-25 11:25N 24°33' E 119°01'1314.1
2014-Oct-25 10:29N 24°24' E 118°50'1413.6
2014-Oct-25 09:28N 24°15' E 118°39'1112.1
2014-Oct-25 08:33N 24°08' E 118°30'1211.7
2014-Oct-25 07:33N 24°00' E 118°20'1211.6
2014-Oct-25 06:33N 23°52' E 118°11'1211.7
2014-Oct-25 05:33N 23°44' E 118°01'1312.3
2014-Oct-25 04:31N 23°36' E 117°51'1713.6
2014-Oct-25 03:15N 23°25' E 117°37'5013.4
2014-Oct-24 23:30N 22°57' E 116°51'1212.6
2014-Oct-24 22:33N 22°51' E 116°40'16112.4
2014-Oct-24 09:33N 22°01' E 113°55'1111.0
2014-Oct-24 08:33N 22°09' E 113°48'1414.0
2014-Oct-24 07:32N 22°23' E 113°46'1513.6
2014-Oct-24 06:25N 22°38' E 113°41'2 0.1
2014-Oct-23 04:24N 22°36' E 113°43'1112.5
2014-Oct-23 03:33N 22°26' E 113°45'1312.6
2014-Oct-23 02:33N 22°13' E 113°48'9 8.4
2014-Oct-23 01:32N 22°05' E 113°51'3 3.3
2014-Oct-23 00:33N 22°04' E 113°54'0 0.0
2014-Oct-22 16:15N 22°04' E 113°54'0 0.1
2014-Oct-22 15:27N 22°04' E 113°54'0 0.0
2014-Oct-22 14:33N 22°04' E 113°54'0 0.0
2014-Oct-22 13:33N 22°04' E 113°54'0 0.0
2014-Oct-22 12:21N 22°04' E 113°54'0 0.0
2014-Oct-22 11:33N 22°04' E 113°54'0 0.1
2014-Oct-22 10:33N 22°04' E 113°54'0 0.0
2014-Oct-22 09:33N 22°04' E 113°54'0 0.1
2014-Oct-22 08:21N 22°04' E 113°54'14612.2
2014-Oct-21 20:26N 22°44' E 116°26'1213.4
2014-Oct-21 19:33N 22°49' E 116°37'1413.6
2014-Oct-21 18:33N 22°56' E 116°50'1413.5
2014-Oct-21 17:34N 23°02' E 117°03'1414.0
2014-Oct-21 16:34N 23°09' E 117°16'1312.9
2014-Oct-21 15:33N 23°17' E 117°28'1513.4
2014-Oct-21 14:26N 23°27' E 117°40'1212.4
2014-Oct-21 13:30N 23°35' E 117°49'1212.3
2014-Oct-21 12:33N 23°43' E 117°58'1211.8
2014-Oct-21 11:32N 23°51' E 118°08'1212.0
2014-Oct-21 10:32N 23°58' E 118°18'1212.0
2014-Oct-21 09:31N 24°07' E 118°28'1212.7
2014-Oct-21 08:32N 24°15' E 118°38'1212.4
2014-Oct-21 07:33N 24°23' E 118°48'1212.4
2014-Oct-21 06:33N 24°31' E 118°58'1212.4
2014-Oct-21 05:33N 24°39' E 119°08'1312.6
2014-Oct-21 04:33N 24°48' E 119°19'30213.1
2014-Oct-20 05:33N 28°25' E 123°13'1413.1
2014-Oct-20 04:27N 28°35' E 123°24'1212.8
2014-Oct-20 03:31N 28°44' E 123°34'  

Dump ship's entire track history